createdAt,value
2017-06-29T00:00:41.313Z,0
2017-06-29T00:01:41.424Z,0
2017-06-29T00:02:35.420Z,0
2017-06-29T00:03:36.459Z,0
2017-06-29T00:04:37.485Z,0
2017-06-29T00:05:32.507Z,0
2017-06-29T00:06:26.604Z,0
2017-06-29T00:07:26.600Z,0
2017-06-29T00:08:21.727Z,0
2017-06-29T00:09:21.749Z,0
2017-06-29T00:10:15.700Z,0
2017-06-29T00:11:15.773Z,0
2017-06-29T00:12:10.778Z,0
2017-06-29T00:13:05.844Z,0
2017-06-29T00:14:05.877Z,0
2017-06-29T00:15:00.954Z,0
2017-06-29T00:15:55.938Z,0
2017-06-29T00:16:55.952Z,0
2017-06-29T00:17:51.009Z,0
2017-06-29T00:18:46.100Z,0
2017-06-29T00:19:47.085Z,0
2017-06-29T00:20:47.107Z,0
2017-06-29T00:21:47.198Z,0
2017-06-29T00:22:42.162Z,0
2017-06-29T00:23:36.208Z,0
2017-06-29T00:24:36.325Z,0
2017-06-29T00:25:31.248Z,0
2017-06-29T00:26:31.453Z,0
2017-06-29T00:27:25.387Z,0
2017-06-29T00:28:25.387Z,0
2017-06-29T00:29:20.948Z,0
2017-06-29T00:30:15.481Z,0
2017-06-29T00:31:16.480Z,0
2017-06-29T00:32:16.519Z,0
2017-06-29T00:33:11.568Z,0
2017-06-29T00:34:11.606Z,0
2017-06-29T00:35:05.654Z,0
2017-06-29T00:36:05.688Z,0
2017-06-29T00:37:00.945Z,0
2017-06-29T00:37:55.830Z,0
2017-06-29T00:38:55.744Z,0
2017-06-29T00:39:50.815Z,0
2017-06-29T00:40:45.877Z,0
2017-06-29T00:41:46.930Z,0
2017-06-29T00:42:46.972Z,0
2017-06-29T00:43:42.050Z,0
2017-06-29T00:44:42.005Z,0
2017-06-29T00:45:36.033Z,0
2017-06-29T00:46:36.064Z,0
2017-06-29T00:47:31.091Z,0
2017-06-29T00:48:26.196Z,0
2017-06-29T00:49:26.236Z,0
2017-06-29T00:50:21.267Z,0
2017-06-29T00:51:16.260Z,0
2017-06-29T00:52:16.594Z,0
2017-06-29T00:53:11.343Z,0
2017-06-29T00:54:06.359Z,0
2017-06-29T00:55:07.396Z,0
2017-06-29T00:56:07.445Z,0
2017-06-29T00:57:07.433Z,0
2017-06-29T00:58:07.549Z,0
2017-06-29T00:59:08.552Z,0
2017-06-29T01:00:09.628Z,0
2017-06-29T01:01:03.563Z,0
2017-06-29T01:02:03.668Z,0
2017-06-29T01:02:58.695Z,0
2017-06-29T01:03:53.710Z,0
2017-06-29T01:04:53.811Z,0
2017-06-29T01:05:48.780Z,0
2017-06-29T01:06:43.839Z,0
2017-06-29T01:07:38.077Z,0
2017-06-29T01:08:31.931Z,0
2017-06-29T01:09:25.936Z,0
2017-06-29T01:10:19.970Z,0
2017-06-29T01:11:14.105Z,0
2017-06-29T01:12:08.117Z,0
2017-06-29T01:12:56.624Z,0
2017-06-29T01:13:44.235Z,0
2017-06-29T01:14:32.278Z,0
2017-06-29T01:15:21.311Z,0
2017-06-29T01:16:09.249Z,0
2017-06-29T01:16:58.343Z,0
2017-06-29T01:17:58.327Z,0
2017-06-29T01:18:58.447Z,0
2017-06-29T01:19:53.460Z,0
2017-06-29T01:20:41.510Z,0
2017-06-29T01:21:30.555Z,0
2017-06-29T01:22:18.537Z,0
2017-06-29T01:23:06.601Z,0
2017-06-29T01:23:55.682Z,0
2017-06-29T01:24:43.682Z,0
2017-06-29T01:25:31.764Z,0
2017-06-29T01:26:20.811Z,0
2017-06-29T01:27:09.049Z,0
2017-06-29T01:27:57.450Z,0
2017-06-29T01:28:45.969Z,0
2017-06-29T01:29:33.981Z,0
2017-06-29T01:30:22.046Z,0
2017-06-29T01:31:11.074Z,0
2017-06-29T01:31:59.086Z,0
2017-06-29T01:32:47.159Z,0
2017-06-29T01:33:36.321Z,0
2017-06-29T01:34:24.428Z,0
2017-06-29T01:35:12.253Z,0
2017-06-29T01:36:01.418Z,0
2017-06-29T01:36:49.406Z,0
2017-06-29T01:37:38.435Z,0
2017-06-29T01:38:26.485Z,0
2017-06-29T01:39:14.530Z,0
2017-06-29T01:40:02.561Z,0
2017-06-29T01:40:50.571Z,0
2017-06-29T01:41:39.624Z,0
2017-06-29T01:42:27.711Z,0
2017-06-29T01:43:16.718Z,0
2017-06-29T01:44:04.808Z,0
2017-06-29T01:44:52.840Z,0
2017-06-29T01:45:40.862Z,0
2017-06-29T01:46:29.911Z,0
2017-06-29T01:47:17.956Z,0
2017-06-29T01:48:07.017Z,0
2017-06-29T01:48:55.043Z,0
2017-06-29T01:49:43.247Z,0
2017-06-29T01:50:32.286Z,0
2017-06-29T01:51:20.207Z,0
2017-06-29T01:52:08.183Z,0
2017-06-29T01:52:56.934Z,0
2017-06-29T01:53:45.306Z,0
2017-06-29T01:54:33.396Z,0
2017-06-29T01:55:22.358Z,0
2017-06-29T01:56:10.419Z,0
2017-06-29T01:57:10.438Z,0
2017-06-29T01:58:05.480Z,0
2017-06-29T01:59:00.557Z,0
2017-06-29T02:00:01.564Z,0
2017-06-29T02:01:01.556Z,0
2017-06-29T02:02:01.736Z,0
2017-06-29T02:02:57.252Z,0
2017-06-29T02:03:50.665Z,0
2017-06-29T02:04:51.772Z,0
2017-06-29T02:05:51.790Z,0
2017-06-29T02:06:51.749Z,0
2017-06-29T02:07:46.897Z,0
2017-06-29T02:08:40.866Z,0
2017-06-29T02:09:40.989Z,0
2017-06-29T02:10:35.926Z,0
2017-06-29T02:11:30.996Z,0
2017-06-29T02:12:32.053Z,0
2017-06-29T02:13:32.082Z,0
2017-06-29T02:14:32.091Z,0
2017-06-29T02:15:27.568Z,0
2017-06-29T02:16:16.241Z,0
2017-06-29T02:17:04.249Z,0
2017-06-29T02:17:52.230Z,0
2017-06-29T02:18:40.393Z,0
2017-06-29T02:19:34.310Z,0
2017-06-29T02:20:28.336Z,0
2017-06-29T02:21:28.438Z,0
2017-06-29T02:22:23.936Z,4
2017-06-29T02:23:18.483Z,4
2017-06-29T02:24:19.559Z,4
2017-06-29T02:25:19.511Z,4
2017-06-29T02:26:19.630Z,0
2017-06-29T02:27:14.621Z,4
2017-06-29T02:28:08.679Z,4
2017-06-29T02:29:08.753Z,4
2017-06-29T02:30:03.750Z,4
2017-06-29T02:31:03.758Z,4
2017-06-29T02:31:58.065Z,4
2017-06-29T02:32:57.866Z,8
2017-06-29T02:33:52.902Z,4
2017-06-29T02:34:48.288Z,8
2017-06-29T02:35:47.939Z,12
2017-06-29T02:36:43.017Z,8
2017-06-29T02:37:38.058Z,12
2017-06-29T02:38:39.065Z,12
2017-06-29T02:39:39.096Z,12
2017-06-29T02:40:39.132Z,16
2017-06-29T02:41:34.209Z,16
2017-06-29T02:42:34.180Z,20
2017-06-29T02:43:34.280Z,24
2017-06-29T02:44:28.237Z,24
2017-06-29T02:45:28.280Z,32
2017-06-29T02:46:23.366Z,32
2017-06-29T02:47:23.438Z,36
2017-06-29T02:48:23.429Z,40
2017-06-29T02:49:23.448Z,44
2017-06-29T02:50:17.440Z,48
2017-06-29T02:51:17.512Z,56
2017-06-29T02:52:13.138Z,56
2017-06-29T02:53:12.619Z,64
2017-06-29T02:54:06.571Z,68
2017-06-29T02:55:06.721Z,80
2017-06-29T02:56:01.808Z,84
2017-06-29T02:56:56.789Z,96
2017-06-29T02:57:56.799Z,104
2017-06-29T02:58:51.889Z,112
2017-06-29T02:59:46.881Z,124
2017-06-29T03:00:52.896Z,140
2017-06-29T03:01:46.955Z,152
2017-06-29T03:02:47.934Z,164
2017-06-29T03:03:48.989Z,176
2017-06-29T03:04:44.080Z,188
2017-06-29T03:05:38.071Z,204
2017-06-29T03:06:39.100Z,224
2017-06-29T03:07:34.092Z,236
2017-06-29T03:08:28.143Z,252
2017-06-29T03:09:28.179Z,276
2017-06-29T03:10:23.294Z,300
2017-06-29T03:11:18.247Z,328
2017-06-29T03:12:18.795Z,364
2017-06-29T03:13:13.333Z,404
2017-06-29T03:14:08.385Z,456
2017-06-29T03:15:08.455Z,520
2017-06-29T03:16:03.563Z,584
2017-06-29T03:16:58.483Z,648
2017-06-29T03:17:58.532Z,720
2017-06-29T03:18:53.598Z,784
2017-06-29T03:19:48.613Z,856
2017-06-29T03:20:42.658Z,928
2017-06-29T03:21:42.653Z,1008
2017-06-29T03:22:37.687Z,1092
2017-06-29T03:23:37.800Z,1180
2017-06-29T03:24:38.803Z,1264
2017-06-29T03:25:32.837Z,1332
2017-06-29T03:26:33.847Z,1408
2017-06-29T03:27:33.924Z,1488
2017-06-29T03:28:29.000Z,1536
2017-06-29T03:29:23.965Z,1588
2017-06-29T03:30:24.004Z,1656
2017-06-29T03:31:19.113Z,1736
2017-06-29T03:32:14.626Z,1764
2017-06-29T03:33:08.166Z,1768
2017-06-29T03:34:08.175Z,1808
2017-06-29T03:35:03.165Z,1828
2017-06-29T03:35:58.271Z,1816
2017-06-29T03:36:58.300Z,1804
2017-06-29T03:37:53.295Z,1820
2017-06-29T03:38:48.378Z,1836
2017-06-29T03:39:42.402Z,1848
2017-06-29T03:40:42.408Z,1908
2017-06-29T03:41:37.479Z,1960
2017-06-29T03:42:37.519Z,2000
2017-06-29T03:43:37.543Z,2056
2017-06-29T03:44:37.585Z,2136
2017-06-29T03:45:31.584Z,2204
2017-06-29T03:46:31.733Z,2272
2017-06-29T03:47:26.711Z,2308
2017-06-29T03:48:26.729Z,2328
2017-06-29T03:49:27.737Z,2348
2017-06-29T03:50:28.857Z,2344
2017-06-29T03:51:29.784Z,2352
2017-06-29T03:52:23.894Z,2392
2017-06-29T03:53:24.860Z,2472
2017-06-29T03:54:24.970Z,2576
2017-06-29T03:55:20.004Z,2724
2017-06-29T03:56:20.038Z,2916
2017-06-29T03:57:21.017Z,3076
2017-06-29T03:58:21.098Z,3180
2017-06-29T03:59:21.122Z,3316
2017-06-29T04:00:21.148Z,3472
2017-06-29T04:01:21.205Z,3640
2017-06-29T04:02:21.268Z,3808
2017-06-29T04:03:21.273Z,3968
2017-06-29T04:04:21.255Z,4140
2017-06-29T04:05:21.322Z,4272
2017-06-29T04:06:21.598Z,4416
2017-06-29T04:07:21.395Z,4592
2017-06-29T04:08:21.442Z,4732
2017-06-29T04:09:21.456Z,4796
2017-06-29T04:10:21.448Z,4864
2017-06-29T04:11:21.547Z,4956
2017-06-29T04:12:21.573Z,5084
2017-06-29T04:13:21.588Z,5224
2017-06-29T04:14:21.662Z,5400
2017-06-29T04:15:21.686Z,5532
2017-06-29T04:16:21.708Z,5636
2017-06-29T04:17:21.751Z,5736
2017-06-29T04:18:21.796Z,5824
2017-06-29T04:19:21.842Z,5912
2017-06-29T04:20:21.886Z,5948
2017-06-29T04:21:21.942Z,6000
2017-06-29T04:22:21.967Z,6128
2017-06-29T04:23:21.970Z,6144
2017-06-29T04:24:22.250Z,6164
2017-06-29T04:25:21.975Z,6300
2017-06-29T04:26:22.067Z,6580
2017-06-29T04:27:22.117Z,6844
2017-06-29T04:28:22.193Z,6928
2017-06-29T04:29:22.202Z,6996
2017-06-29T04:30:22.266Z,7136
2017-06-29T04:31:22.277Z,7304
2017-06-29T04:32:22.287Z,7512
2017-06-29T04:33:22.323Z,7724
2017-06-29T04:34:22.366Z,7840
2017-06-29T04:35:22.423Z,7936
2017-06-29T04:36:22.418Z,8044
2017-06-29T04:37:22.527Z,8156
2017-06-29T04:38:22.511Z,8332
2017-06-29T04:39:22.579Z,8508
2017-06-29T04:40:22.602Z,8624
2017-06-29T04:41:22.773Z,8756
2017-06-29T04:42:22.722Z,8832
2017-06-29T04:43:17.725Z,9008
2017-06-29T04:44:12.767Z,9064
2017-06-29T04:45:07.776Z,9080
2017-06-29T04:46:02.872Z,9140
2017-06-29T04:46:56.876Z,9228
2017-06-29T04:47:56.921Z,9400
2017-06-29T04:48:56.965Z,9588
2017-06-29T04:49:56.990Z,9828
2017-06-29T04:50:51.017Z,10068
2017-06-29T04:51:51.057Z,10272
2017-06-29T04:52:46.111Z,10308
2017-06-29T04:53:41.178Z,10468
2017-06-29T04:54:35.152Z,10592
2017-06-29T04:55:35.201Z,10652
2017-06-29T04:56:30.239Z,10420
2017-06-29T04:57:30.292Z,10576
2017-06-29T04:58:31.383Z,10664
2017-06-29T04:59:31.440Z,10952
2017-06-29T05:00:31.408Z,11112
2017-06-29T05:01:31.437Z,11028
2017-06-29T05:02:31.479Z,10872
2017-06-29T05:03:31.579Z,11008
2017-06-29T05:04:31.771Z,11460
2017-06-29T05:05:31.553Z,12068
2017-06-29T05:06:31.582Z,12492
2017-06-29T05:07:31.752Z,12956
2017-06-29T05:08:31.724Z,13128
2017-06-29T05:09:31.777Z,13100
2017-06-29T05:10:31.763Z,12780
2017-06-29T05:11:31.922Z,12416
2017-06-29T05:12:31.874Z,12328
2017-06-29T05:13:31.891Z,12576
2017-06-29T05:14:31.958Z,12624
2017-06-29T05:15:31.955Z,12452
2017-06-29T05:16:32.098Z,11844
2017-06-29T05:17:32.066Z,11588
2017-06-29T05:18:32.136Z,11136
2017-06-29T05:19:32.159Z,10996
2017-06-29T05:20:32.216Z,11220
2017-06-29T05:21:32.208Z,11272
2017-06-29T05:22:32.288Z,11504
2017-06-29T05:23:32.250Z,12188
2017-06-29T05:24:32.365Z,12960
2017-06-29T05:25:32.405Z,13820
2017-06-29T05:26:32.398Z,16800
2017-06-29T05:27:32.482Z,15216
2017-06-29T05:28:32.554Z,14104
2017-06-29T05:29:32.525Z,12944
2017-06-29T05:30:38.543Z,13904
2017-06-29T05:31:33.585Z,13772
2017-06-29T05:32:27.605Z,14108
2017-06-29T05:33:27.679Z,15364
2017-06-29T05:34:22.820Z,17920
2017-06-29T05:35:17.738Z,19328
2017-06-29T05:36:17.814Z,23136
2017-06-29T05:37:13.409Z,21952
2017-06-29T05:38:07.944Z,16992
2017-06-29T05:39:01.957Z,14244
2017-06-29T05:40:01.996Z,13616
2017-06-29T05:40:57.019Z,14196
2017-06-29T05:41:57.132Z,15460
2017-06-29T05:42:57.112Z,16896
2017-06-29T05:43:57.207Z,16024
2017-06-29T05:44:57.158Z,18368
2017-06-29T05:45:57.254Z,20352
2017-06-29T05:46:51.250Z,21696
2017-06-29T05:47:51.306Z,21184
2017-06-29T05:48:46.429Z,18272
2017-06-29T05:49:41.410Z,13680
2017-06-29T05:50:35.448Z,12996
2017-06-29T05:51:36.581Z,13256
2017-06-29T05:52:37.492Z,13616
2017-06-29T05:53:32.560Z,13588
2017-06-29T05:54:32.580Z,13304
2017-06-29T05:55:32.646Z,14236
2017-06-29T05:56:32.677Z,16800
2017-06-29T05:57:32.719Z,19488
2017-06-29T05:58:32.784Z,19872
2017-06-29T05:59:32.821Z,20032
2017-06-29T06:00:33.047Z,19008
2017-06-29T06:01:39.165Z,17152
2017-06-29T06:02:34.158Z,15920
2017-06-29T06:03:28.028Z,15332
2017-06-29T06:04:28.069Z,14860
2017-06-29T06:05:23.087Z,14988
2017-06-29T06:06:18.068Z,14948
2017-06-29T06:07:18.776Z,15596
2017-06-29T06:08:13.310Z,16016
2017-06-29T06:09:08.236Z,15492
2017-06-29T06:10:08.252Z,14712
2017-06-29T06:11:08.352Z,16268
2017-06-29T06:12:02.412Z,18048
2017-06-29T06:13:03.396Z,22656
2017-06-29T06:13:58.432Z,27392
2017-06-29T06:14:52.545Z,24768
2017-06-29T06:15:52.555Z,26624
2017-06-29T06:16:47.591Z,28192
2017-06-29T06:17:42.610Z,27552
2017-06-29T06:18:36.755Z,25824
2017-06-29T06:19:30.709Z,26272
2017-06-29T06:20:30.809Z,22368
2017-06-29T06:21:31.787Z,27392
2017-06-29T06:22:31.877Z,28064
2017-06-29T06:23:20.873Z,27584
2017-06-29T06:24:08.978Z,28160
2017-06-29T06:25:04.082Z,26816
2017-06-29T06:25:58.018Z,26912
2017-06-29T06:26:52.282Z,27712
2017-06-29T06:27:47.182Z,28896
2017-06-29T06:28:41.214Z,28608
2017-06-29T06:29:36.275Z,29792
2017-06-29T06:30:37.353Z,31008
2017-06-29T06:31:26.364Z,28800
2017-06-29T06:32:22.039Z,46496
2017-06-29T06:33:15.464Z,78720
2017-06-29T06:34:09.532Z,46496
2017-06-29T06:35:04.641Z,38560
2017-06-29T06:36:04.644Z,49984
2017-06-29T06:36:59.730Z,26496
2017-06-29T06:37:53.764Z,73248
2017-06-29T06:38:41.797Z,81312
2017-06-29T06:39:30.871Z,40928
2017-06-29T06:40:19.936Z,36288
2017-06-29T06:41:09.076Z,59616
2017-06-29T06:42:03.042Z,33312
2017-06-29T06:42:57.204Z,79040
2017-06-29T06:43:51.158Z,58016
2017-06-29T06:44:52.482Z,30240
2017-06-29T06:45:46.326Z,55936
2017-06-29T06:46:35.351Z,31200
2017-06-29T06:47:23.853Z,33280
2017-06-29T06:48:18.455Z,24000
2017-06-29T06:49:18.507Z,30496
2017-06-29T06:50:12.562Z,24512
2017-06-29T06:51:06.672Z,20576
2017-06-29T06:52:01.690Z,22528
2017-06-29T06:52:57.101Z,22432
2017-06-29T06:53:50.872Z,25440
2017-06-29T06:54:38.834Z,21504
2017-06-29T06:55:27.322Z,19200
2017-06-29T06:56:21.904Z,17952
2017-06-29T06:57:10.235Z,19904
2017-06-29T06:58:04.439Z,22240
2017-06-29T06:58:59.061Z,20128
2017-06-29T06:59:53.129Z,20416
2017-06-29T07:00:48.145Z,20256
2017-06-29T07:01:42.729Z,24096
2017-06-29T07:02:42.286Z,33536
2017-06-29T07:03:42.373Z,47232
2017-06-29T07:04:37.424Z,33440
2017-06-29T07:05:32.466Z,29984
2017-06-29T07:06:26.504Z,27872
2017-06-29T07:07:22.083Z,27648
2017-06-29T07:08:15.602Z,24736
2017-06-29T07:09:04.551Z,24032
2017-06-29T07:09:52.670Z,29472
2017-06-29T07:10:46.732Z,32160
2017-06-29T07:11:35.740Z,24672
2017-06-29T07:12:30.817Z,19424
2017-06-29T07:13:31.192Z,17472
2017-06-29T07:14:24.981Z,17056
2017-06-29T07:15:19.006Z,18784
2017-06-29T07:16:19.008Z,17152
2017-06-29T07:17:13.219Z,16768
2017-06-29T07:18:13.631Z,18112
2017-06-29T07:19:01.213Z,18560
2017-06-29T07:20:02.247Z,18176
2017-06-29T07:21:03.269Z,18976
2017-06-29T07:21:52.317Z,20736
2017-06-29T07:22:47.364Z,23616
2017-06-29T07:23:41.745Z,24928
2017-06-29T07:24:41.508Z,21632
2017-06-29T07:25:36.563Z,18752
2017-06-29T07:26:31.603Z,17536
2017-06-29T07:27:31.611Z,16672
2017-06-29T07:28:25.654Z,15272
2017-06-29T07:29:25.817Z,14264
2017-06-29T07:30:20.789Z,16096
2017-06-29T07:31:14.834Z,18016
2017-06-29T07:32:14.918Z,17952
2017-06-29T07:33:10.536Z,17344
2017-06-29T07:34:04.946Z,17632
2017-06-29T07:34:59.057Z,20032
2017-06-29T07:35:47.060Z,20928
2017-06-29T07:36:47.182Z,21344
2017-06-29T07:37:47.222Z,23040
2017-06-29T07:38:47.283Z,23264
2017-06-29T07:39:41.592Z,25792
2017-06-29T07:40:35.303Z,28992
2017-06-29T07:41:35.363Z,25056
2017-06-29T07:42:30.374Z,23680
2017-06-29T07:43:24.470Z,19008
2017-06-29T07:44:18.461Z,18016
2017-06-29T07:45:18.559Z,16960
2017-06-29T07:46:12.575Z,17440
2017-06-29T07:47:06.728Z,18912
2017-06-29T07:47:56.014Z,18848
2017-06-29T07:48:49.791Z,19392
2017-06-29T07:49:44.769Z,13472
2017-06-29T07:50:40.145Z,12912
2017-06-29T07:51:33.885Z,13672
2017-06-29T07:52:23.633Z,14608
2017-06-29T07:53:22.977Z,16800
2017-06-29T07:54:17.040Z,19168
2017-06-29T07:55:11.121Z,20480
2017-06-29T07:56:06.420Z,20704
2017-06-29T07:57:06.183Z,19968
2017-06-29T07:58:01.217Z,18912
2017-06-29T07:58:56.294Z,18016
2017-06-29T07:59:51.334Z,17152
2017-06-29T08:00:46.355Z,16672
2017-06-29T08:01:41.710Z,16864
2017-06-29T08:02:35.459Z,17824
2017-06-29T08:03:29.543Z,19776
2017-06-29T08:04:24.560Z,22112
2017-06-29T08:05:18.564Z,24736
2017-06-29T08:06:12.657Z,27168
2017-06-29T08:07:00.680Z,27648
2017-06-29T08:07:55.748Z,27296
2017-06-29T08:08:56.866Z,25312
2017-06-29T08:09:45.839Z,23680
2017-06-29T08:10:40.865Z,22112
2017-06-29T08:11:29.989Z,20384
2017-06-29T08:12:19.171Z,18752
2017-06-29T08:13:13.078Z,16672
2017-06-29T08:14:02.132Z,14676
2017-06-29T08:14:56.202Z,13176
2017-06-29T08:15:50.207Z,12152
2017-06-29T08:16:50.294Z,11244
2017-06-29T08:17:39.363Z,10344
2017-06-29T08:18:28.369Z,9384
2017-06-29T08:19:23.345Z,8324
2017-06-29T08:20:17.476Z,7344
2017-06-29T08:21:12.481Z,6284
2017-06-29T08:22:01.567Z,5420
2017-06-29T08:22:56.586Z,4872
2017-06-29T08:23:51.736Z,4792
2017-06-29T08:24:46.783Z,5008
2017-06-29T08:25:47.755Z,5692
2017-06-29T08:26:47.736Z,6832
2017-06-29T08:27:41.840Z,8036
2017-06-29T08:28:30.928Z,9140
2017-06-29T08:29:31.894Z,9964
2017-06-29T08:30:31.985Z,10324
2017-06-29T08:31:32.011Z,10632
2017-06-29T08:32:26.364Z,11464
2017-06-29T08:33:26.058Z,12788
2017-06-29T08:34:21.135Z,14072
2017-06-29T08:35:15.181Z,15060
2017-06-29T08:36:15.254Z,15612
2017-06-29T08:37:15.255Z,15240
2017-06-29T08:38:15.334Z,13940
2017-06-29T08:39:15.333Z,14280
2017-06-29T08:40:15.353Z,15940
2017-06-29T08:41:15.457Z,18144
2017-06-29T08:42:15.485Z,20864
2017-06-29T08:43:15.549Z,23776
2017-06-29T08:44:15.643Z,26464
2017-06-29T08:45:10.151Z,27776
2017-06-29T08:46:04.697Z,28224
2017-06-29T08:47:05.698Z,29376
2017-06-29T08:48:06.778Z,31232
2017-06-29T08:49:00.784Z,34496
2017-06-29T08:49:49.884Z,38496
2017-06-29T08:50:38.877Z,41152
2017-06-29T08:51:28.000Z,41152
2017-06-29T08:52:22.542Z,40960
2017-06-29T08:53:16.069Z,38720
2017-06-29T08:54:11.134Z,37120
2017-06-29T08:55:05.125Z,33120
2017-06-29T08:56:00.169Z,29568
2017-06-29T08:57:00.264Z,26848
2017-06-29T08:58:00.307Z,25728
2017-06-29T08:58:54.346Z,23584
2017-06-29T08:59:54.401Z,19360
2017-06-29T09:00:43.435Z,14696
2017-06-29T09:01:37.478Z,10136
2017-06-29T09:02:37.447Z,7044
2017-06-29T09:03:32.569Z,5772
2017-06-29T09:04:27.615Z,5676
2017-06-29T09:05:21.707Z,6416
2017-06-29T09:06:16.666Z,8172
2017-06-29T09:07:17.729Z,10540
2017-06-29T09:08:11.868Z,12292
2017-06-29T09:09:05.887Z,13228
2017-06-29T09:10:05.899Z,13544
2017-06-29T09:10:59.961Z,15508
2017-06-29T09:11:59.958Z,17056
2017-06-29T09:12:49.083Z,17920
2017-06-29T09:13:43.137Z,18880
2017-06-29T09:14:32.167Z,19680
2017-06-29T09:15:32.202Z,20480
2017-06-29T09:16:21.240Z,21248
2017-06-29T09:17:09.749Z,21824
2017-06-29T09:18:04.357Z,22336
2017-06-29T09:18:52.830Z,22496
2017-06-29T09:19:47.445Z,22976
2017-06-29T09:20:41.498Z,23872
2017-06-29T09:21:35.513Z,25568
2017-06-29T09:22:24.141Z,27872
2017-06-29T09:23:23.609Z,31360
2017-06-29T09:24:18.707Z,33024
2017-06-29T09:25:13.704Z,35552
2017-06-29T09:26:13.751Z,37376
2017-06-29T09:27:07.769Z,38656
2017-06-29T09:28:02.889Z,39360
2017-06-29T09:28:51.874Z,39712
2017-06-29T09:29:51.946Z,39488
2017-06-29T09:30:52.214Z,38976
2017-06-29T09:31:47.061Z,38336
2017-06-29T09:32:35.118Z,37376
2017-06-29T09:33:24.147Z,36224
2017-06-29T09:34:18.256Z,34240
2017-06-29T09:35:07.302Z,32704
2017-06-29T09:36:08.286Z,30784
2017-06-29T09:37:02.736Z,29248
2017-06-29T09:37:56.863Z,27936
2017-06-29T09:38:56.485Z,26272
2017-06-29T09:39:50.543Z,25984
2017-06-29T09:40:44.584Z,25920
2017-06-29T09:41:32.624Z,26048
2017-06-29T09:42:33.944Z,26048
2017-06-29T09:43:33.636Z,27040
2017-06-29T09:44:28.702Z,27616
2017-06-29T09:45:16.828Z,27968
2017-06-29T09:46:10.880Z,28480
2017-06-29T09:46:59.941Z,29056
2017-06-29T09:47:55.211Z,29024
2017-06-29T09:48:55.033Z,28224
2017-06-29T09:49:50.073Z,27264
2017-06-29T09:50:44.130Z,25984
2017-06-29T09:51:33.215Z,24256
2017-06-29T09:52:27.758Z,21984
2017-06-29T09:53:21.218Z,20704
2017-06-29T09:54:21.386Z,19552
2017-06-29T09:55:15.406Z,18752
2017-06-29T09:56:09.465Z,18560
2017-06-29T09:57:04.454Z,18400
2017-06-29T09:57:52.545Z,18272
2017-06-29T09:58:46.570Z,17728
2017-06-29T09:59:46.606Z,16224
2017-06-29T10:00:40.705Z,15340
2017-06-29T10:01:29.740Z,15444
2017-06-29T10:02:29.730Z,15740
2017-06-29T10:03:29.858Z,16344
2017-06-29T10:04:24.875Z,16768
2017-06-29T10:05:18.941Z,16928
2017-06-29T10:06:13.954Z,17344
2017-06-29T10:07:13.986Z,16392
2017-06-29T10:08:09.097Z,14800
2017-06-29T10:09:03.143Z,12940
2017-06-29T10:09:58.270Z,11876
2017-06-29T10:10:58.167Z,11756
2017-06-29T10:11:47.243Z,12356
2017-06-29T10:12:47.232Z,14420
2017-06-29T10:13:53.374Z,18016
2017-06-29T10:14:53.386Z,20544
2017-06-29T10:15:53.665Z,22016
2017-06-29T10:16:48.467Z,22944
2017-06-29T10:17:42.573Z,23712
2017-06-29T10:18:36.608Z,24320
2017-06-29T10:19:31.677Z,24800
2017-06-29T10:20:19.685Z,25120
2017-06-29T10:21:08.302Z,25504
2017-06-29T10:21:55.778Z,25376
2017-06-29T10:22:43.804Z,25568
2017-06-29T10:23:32.860Z,25216
2017-06-29T10:24:26.975Z,24320
2017-06-29T10:25:27.018Z,23392
2017-06-29T10:26:21.075Z,22144
2017-06-29T10:27:16.051Z,20384
2017-06-29T10:28:16.164Z,18080
2017-06-29T10:29:11.195Z,17312
2017-06-29T10:30:06.183Z,19360
2017-06-29T10:30:55.295Z,23712
2017-06-29T10:31:50.343Z,28192
2017-06-29T10:32:45.358Z,31168
2017-06-29T10:33:46.431Z,32960
2017-06-29T10:34:41.446Z,33568
2017-06-29T10:35:30.461Z,33440
2017-06-29T10:36:24.575Z,32192
2017-06-29T10:37:25.173Z,27712
2017-06-29T10:38:12.661Z,24640
2017-06-29T10:39:12.698Z,24736
2017-06-29T10:40:12.767Z,29248
2017-06-29T10:41:12.773Z,32416
2017-06-29T10:42:06.838Z,32704
2017-06-29T10:43:06.840Z,32960
2017-06-29T10:44:00.926Z,34048
2017-06-29T10:44:55.997Z,35424
2017-06-29T10:45:56.118Z,36384
2017-06-29T10:46:50.158Z,37728
2017-06-29T10:47:44.142Z,38528
2017-06-29T10:48:39.206Z,38944
2017-06-29T10:49:39.348Z,39360
2017-06-29T10:50:33.425Z,39264
2017-06-29T10:51:28.440Z,38976
2017-06-29T10:52:16.325Z,38016
2017-06-29T10:53:10.414Z,36608
2017-06-29T10:54:05.435Z,37312
2017-06-29T10:54:59.567Z,38400
2017-06-29T10:55:53.615Z,38848
2017-06-29T10:56:48.728Z,38304
2017-06-29T10:57:48.694Z,39328
2017-06-29T10:58:42.858Z,39904
2017-06-29T10:59:31.981Z,38656
2017-06-29T11:00:26.126Z,34720
2017-06-29T11:01:25.971Z,29472
2017-06-29T11:02:19.974Z,27136
2017-06-29T11:03:20.041Z,25248
2017-06-29T11:04:20.086Z,21440
2017-06-29T11:05:09.289Z,19008
2017-06-29T11:06:03.239Z,17728
2017-06-29T11:06:58.319Z,18048
2017-06-29T11:07:52.378Z,19360
2017-06-29T11:08:52.775Z,20448
2017-06-29T11:09:46.467Z,22080
2017-06-29T11:10:35.443Z,21632
2017-06-29T11:11:29.480Z,20160
2017-06-29T11:12:25.268Z,23232
2017-06-29T11:13:13.720Z,29024
2017-06-29T11:14:07.772Z,36576
2017-06-29T11:15:02.776Z,40832
2017-06-29T11:15:56.930Z,43456
2017-06-29T11:16:51.825Z,46176
2017-06-29T11:17:46.128Z,44160
2017-06-29T11:18:39.997Z,43296
2017-06-29T11:19:34.962Z,39136
2017-06-29T11:20:22.977Z,39936
2017-06-29T11:21:18.194Z,40128
2017-06-29T11:22:07.115Z,39136
2017-06-29T11:23:01.320Z,37024
2017-06-29T11:23:49.307Z,38528
2017-06-29T11:24:49.293Z,42656
2017-06-29T11:25:43.273Z,46368
2017-06-29T11:26:37.420Z,49312
2017-06-29T11:27:27.040Z,51040
2017-06-29T11:28:20.555Z,51648
2017-06-29T11:29:14.765Z,53120
2017-06-29T11:30:09.531Z,53920
2017-06-29T11:31:03.730Z,54656
2017-06-29T11:32:03.684Z,54048
2017-06-29T11:33:04.366Z,52320
2017-06-29T11:33:57.812Z,47008
2017-06-29T11:34:53.003Z,47776
2017-06-29T11:35:42.005Z,48032
2017-06-29T11:36:36.024Z,46496
2017-06-29T11:37:31.379Z,49312
2017-06-29T11:38:32.144Z,47808
2017-06-29T11:39:26.311Z,44544
2017-06-29T11:40:15.214Z,40480
2017-06-29T11:41:04.930Z,38432
2017-06-29T11:41:53.286Z,35584
2017-06-29T11:42:42.567Z,30432
2017-06-29T11:43:36.521Z,27200
2017-06-29T11:44:32.278Z,23936
2017-06-29T11:45:19.568Z,20992
2017-06-29T11:46:13.577Z,21504
2017-06-29T11:47:08.735Z,29248
2017-06-29T11:48:02.730Z,34144
2017-06-29T11:50:50.293Z,18432
2017-06-29T11:51:43.987Z,17824
2017-06-29T11:52:37.994Z,16768
2017-06-29T11:53:27.058Z,13284
2017-06-29T11:54:21.379Z,11408
2017-06-29T11:55:10.193Z,11976
2017-06-29T11:56:05.562Z,15388
2017-06-29T11:56:53.288Z,21376
2017-06-29T11:57:42.308Z,28128
2017-06-29T11:58:42.441Z,30048
2017-06-29T11:59:42.441Z,25184
2017-06-29T12:00:42.482Z,22240
2017-06-29T12:01:43.066Z,21760
2017-06-29T12:02:32.019Z,20832
2017-06-29T12:03:26.689Z,19232
2017-06-29T12:04:15.898Z,17184
2017-06-29T12:05:10.713Z,14736
2017-06-29T12:06:10.757Z,12596
2017-06-29T12:07:11.324Z,10616
2017-06-29T12:08:05.936Z,8776
2017-06-29T12:08:59.887Z,7876
2017-06-29T12:09:49.003Z,7212
2017-06-29T12:10:44.049Z,6484
2017-06-29T12:11:39.204Z,6596
2017-06-29T12:12:33.226Z,6960
2017-06-29T12:13:28.216Z,7736
2017-06-29T12:14:23.193Z,8088
2017-06-29T12:15:12.312Z,8132
2017-06-29T12:16:06.478Z,7644
2017-06-29T12:17:06.546Z,7804
2017-06-29T12:18:01.489Z,8512
2017-06-29T12:18:56.564Z,8860
2017-06-29T12:19:50.615Z,9020
2017-06-29T12:20:45.658Z,10360
2017-06-29T12:21:39.666Z,12272
2017-06-29T12:22:29.192Z,12732
2017-06-29T12:23:22.750Z,10892
2017-06-29T12:24:11.794Z,10156
2017-06-29T12:25:11.863Z,12184
2017-06-29T12:26:06.885Z,15640
2017-06-29T12:27:01.044Z,19200